Time;durP1;ratioP1;P1;durP2;ratioP2;P2;SDS_P1;SDS_P2;PMS_P1;PMS_P2;Temp;Humidity;BMP_temperature;BMP_pressure;BME280_temperature;BME280_humidity;BME280_pressure;Samples;Min_cycle;Max_cycle;Signal;HPM_P1;HPM_P2
2022/12/18 00:00:17;;;;;;;129.43;36.75;;;;;;;-5.48;100.00;102748.31;2056403;28;32623;-79
2022/12/18 00:01:24;;;;;;;126.68;38.63;;;;;;;-5.47;100.00;102738.78;2056919;28;20047;-80
2022/12/18 00:02:25;;;;;;;138.10;39.70;;;;;;;-5.50;100.00;102736.88;2056273;28;39203;-80
2022/12/18 00:03:29;;;;;;;134.73;39.90;;;;;;;-5.50;100.00;102735.97;2055511;28;39545;-80
2022/12/18 00:04:32;;;;;;;129.98;38.83;;;;;;;-5.50;100.00;102733.38;2056747;28;20165;-80
2022/12/18 00:05:34;;;;;;;136.63;39.15;;;;;;;-5.51;100.00;102737.66;2055787;28;38023;-80
2022/12/18 00:06:36;;;;;;;124.25;37.25;;;;;;;-5.53;100.00;102731.41;2056283;28;35394;-79
2022/12/18 00:07:38;;;;;;;129.38;38.53;;;;;;;-5.51;100.00;102731.53;2056109;28;43223;-80
2022/12/18 00:08:44;;;;;;;130.85;38.78;;;;;;;-5.54;100.00;102724.41;2055903;28;41589;-80
2022/12/18 00:09:47;;;;;;;128.93;39.08;;;;;;;-5.54;100.00;102721.81;2047493;28;20082;-81
2022/12/18 00:10:48;;;;;;;125.78;37.38;;;;;;;-5.57;100.00;102717.25;2048938;28;34912;-80
2022/12/18 00:11:50;;;;;;;135.77;37.83;;;;;;;-5.57;100.00;102713.75;2056926;28;20047;-79
2022/12/18 00:12:52;;;;;;;137.20;39.38;;;;;;;-5.61;100.00;102715.22;2056208;28;42375;-80
2022/12/18 00:13:56;;;;;;;140.77;39.15;;;;;;;-5.62;100.00;102709.91;2056010;28;36648;-80
2022/12/18 00:14:58;;;;;;;127.45;37.78;;;;;;;-5.63;100.00;102715.94;2039565;29;38511;-80
2022/12/18 00:16:11;;;;;;;134.13;39.40;;;;;;;-5.65;100.00;102718.44;2040930;28;20040;-80
2022/12/18 00:17:16;;;;;;;137.43;38.95;;;;;;;-5.67;100.00;102714.81;2047666;28;35132;-80
2022/12/18 00:18:18;;;;;;;134.10;39.00;;;;;;;-5.67;100.00;102720.03;2047110;28;41678;-80
2022/12/18 00:19:23;;;;;;;135.18;38.97;;;;;;;-5.67;100.00;102716.47;2056382;28;36478;-79
2022/12/18 00:20:25;;;;;;;131.45;38.30;;;;;;;-5.67;100.00;102724.31;2047418;28;35770;-80
2022/12/18 00:21:29;;;;;;;135.38;40.17;;;;;;;-5.70;100.00;102717.19;2047574;28;39957;-80
2022/12/18 00:22:30;;;;;;;139.57;41.17;;;;;;;-5.73;100.00;102719.56;2055828;28;39043;-80
2022/12/18 00:23:34;;;;;;;139.73;40.45;;;;;;;-5.73;100.00;102724.78;2056228;28;39494;-80
2022/12/18 00:24:36;;;;;;;138.77;38.40;;;;;;;-5.76;100.00;102719.34;2055739;28;38296;-80
2022/12/18 00:25:37;;;;;;;148.82;39.58;;;;;;;-5.76;100.00;102722.88;2055357;28;36812;-80
2022/12/18 00:26:41;;;;;;;130.15;38.40;;;;;;;-5.76;100.00;102724.56;2056562;28;20923;-80
2022/12/18 00:27:57;;;;;;;151.23;40.95;;;;;;;-5.81;100.00;102731.16;2057322;28;40773;-80
2022/12/18 00:29:17;;;;;;;135.63;37.20;;;;;;;-5.84;100.00;102729.22;2064634;28;20113;-74
2022/12/18 00:30:21;;;;;;;101.97;29.33;;;;;;;-5.86;100.00;102722.09;2064490;28;35467;-74
2022/12/18 00:31:25;;;;;;;144.32;37.35;;;;;;;-5.86;100.00;102727.31;2064695;28;20047;-74
2022/12/18 00:32:27;;;;;;;136.40;38.55;;;;;;;-5.87;100.00;102726.38;2055459;28;33067;-74
2022/12/18 00:33:29;;;;;;;140.73;38.00;;;;;;;-5.88;100.00;102711.53;2048015;28;20086;-74
2022/12/18 00:34:31;;;;;;;151.68;39.67;;;;;;;-5.92;100.00;102724.25;2055231;28;32212;-74
2022/12/18 00:35:33;;;;;;;129.73;37.30;;;;;;;-5.93;100.00;102720.72;2063401;28;31217;-74
2022/12/18 00:36:34;;;;;;;144.77;40.30;;;;;;;-5.95;100.00;102719.72;2063183;28;36252;-74
2022/12/18 00:37:36;;;;;;;132.07;37.53;;;;;;;-5.95;100.00;102719.72;2063931;28;22948;-74
2022/12/18 00:38:39;;;;;;;120.68;35.17;;;;;;;-5.95;100.00;102719.72;2063641;28;20186;-72
2022/12/18 00:39:41;;;;;;;140.68;39.33;;;;;;;-5.95;100.00;102722.31;2055192;28;32862;-74
2022/12/18 00:40:43;;;;;;;144.13;39.60;;;;;;;-5.95;100.00;102722.31;2055835;28;35594;-73
2022/12/18 00:43:07;;;;;;;136.73;39.17;;;;;;;-6.02;100.00;102721.00;2055398;28;32835;-74
2022/12/18 00:44:14;;;;;;;132.43;38.88;;;;;;;-6.02;100.00;102718.41;2055755;28;27802;-74
2022/12/18 00:45:15;;;;;;;126.78;36.70;;;;;;;-6.04;100.00;102725.19;2056237;28;20046;-74
2022/12/18 00:46:17;;;;;;;145.20;40.53;;;;;;;-6.05;100.00;102727.69;2055885;28;32376;-74
2022/12/18 00:47:19;;;;;;;140.88;39.50;;;;;;;-6.09;100.00;102723.94;2047321;28;31644;-74
2022/12/18 00:48:22;;;;;;;124.80;38.95;;;;;;;-6.13;100.00;102715.81;2048181;28;20048;-74
2022/12/18 00:49:23;;;;;;;127.15;37.03;;;;;;;-6.19;100.00;102719.78;2055667;28;33577;-74
2022/12/18 00:50:25;;;;;;;135.80;39.00;;;;;;;-6.23;100.00;102722.94;2063935;28;29939;-75
2022/12/18 00:51:27;;;;;;;120.80;36.88;;;;;;;-6.26;100.00;102721.78;2055122;28;32783;-74
2022/12/18 00:52:29;;;;;;;118.45;35.05;;;;;;;-6.30;100.00;102712.84;2055535;28;30838;-74
2022/12/18 00:53:32;;;;;;;125.13;37.63;;;;;;;-6.36;100.00;102712.41;2055727;28;20123;-74
2022/12/18 00:54:34;;;;;;;123.75;36.75;;;;;;;-6.41;100.00;102718.97;2054562;28;35370;-74
2022/12/18 00:55:39;;;;;;;119.78;35.70;;;;;;;-6.44;100.00;102723.94;2055582;28;28972;-74
2022/12/18 00:56:41;;;;;;;127.63;36.53;;;;;;;-6.52;100.00;102716.44;2047805;28;31152;-74
2022/12/18 00:57:52;;;;;;;;;;;;;;;-6.57;100.00;102728.25;2049624;28;20094;-73
2022/12/18 00:58:54;;;;;;;103.20;30.83;;;;;;;-6.61;100.00;102728.78;2056259;28;20886;-74
2022/12/18 00:59:55;;;;;;;119.38;33.08;;;;;;;-6.66;100.00;102732.75;2056942;28;35725;-74
2022/12/18 01:00:57;;;;;;;104.55;32.83;;;;;;;-6.68;100.00;102738.63;2048137;28;27050;-75
2022/12/18 01:01:59;;;;;;;130.65;36.30;;;;;;;-6.74;100.00;102737.38;2055739;28;20035;-75
2022/12/18 01:03:03;;;;;;;114.13;33.00;;;;;;;-6.77;100.00;102736.22;2055408;28;35898;-74
2022/12/18 01:04:05;;;;;;;117.63;35.88;;;;;;;-6.80;100.00;102741.19;2055369;28;40307;-74
2022/12/18 01:05:10;;;;;;;110.25;34.00;;;;;;;-6.85;100.00;102745.19;2064968;28;20829;-74
2022/12/18 01:06:15;;;;;;;114.93;33.85;;;;;;;-6.87;100.00;102744.13;2063747;28;37222;-74
2022/12/18 01:07:18;;;;;;;118.18;35.20;;;;;;;-6.93;100.00;102745.50;2055920;28;20044;-74
2022/12/18 01:08:20;;;;;;;115.07;33.30;;;;;;;-6.96;100.00;102747.84;2055665;28;30307;-74
2022/12/18 01:09:22;;;;;;;108.00;32.78;;;;;;;-7.00;100.00;102747.47;2064019;28;20047;-74
2022/12/18 01:10:26;;;;;;;105.75;33.20;;;;;;;-7.00;100.00;102745.81;2063759;28;20046;-74
2022/12/18 01:11:31;;;;;;;100.55;31.27;;;;;;;-7.02;100.00;102746.47;2064425;28;20797;-74
2022/12/18 01:12:33;;;;;;;107.63;34.58;;;;;;;-7.05;100.00;102752.34;2063208;28;37236;-73
2022/12/18 01:13:35;;;;;;;107.50;32.70;;;;;;;-7.10;100.00;102749.38;2062549;28;32062;-74
2022/12/18 01:14:38;;;;;;;96.30;32.45;;;;;;;-7.14;100.00;102741.19;2054508;28;40219;-74
2022/12/18 01:15:39;;;;;;;105.38;33.33;;;;;;;-7.18;100.00;102745.25;2055219;28;30291;-74
2022/12/18 01:16:44;;;;;;;97.20;31.65;;;;;;;-7.21;100.00;102744.09;2055942;28;20916;-74
2022/12/18 01:17:48;;;;;;;91.20;31.63;;;;;;;-7.24;100.00;102736.09;2055879;28;26039;-74
2022/12/18 01:18:54;;;;;;;97.28;31.38;;;;;;;-7.23;100.00;102750.88;2055626;28;37203;-74
2022/12/18 01:19:56;;;;;;;100.47;31.23;;;;;;;-7.24;100.00;102743.88;2063788;28;29515;-74
2022/12/18 01:20:58;;;;;;;99.13;31.83;;;;;;;-7.25;100.00;102749.88;2055354;28;30694;-74
2022/12/18 01:22:00;;;;;;;100.45;31.80;;;;;;;-7.25;100.00;102744.66;2049160;28;32316;-74
2022/12/18 01:23:01;;;;;;;102.93;32.20;;;;;;;-7.30;100.00;102746.94;2049272;28;20131;-74
2022/12/18 01:24:04;;;;;;;93.32;30.77;;;;;;;-7.39;100.00;102744.50;2057612;28;31168;-73
2022/12/18 01:25:06;;;;;;;89.78;30.95;;;;;;;-7.40;100.00;102747.88;2064696;28;20267;-74
2022/12/18 01:26:16;;;;;;;94.30;29.63;;;;;;;-7.42;100.00;102753.75;2056047;28;20043;-74
2022/12/18 01:27:18;;;;;;;94.95;30.17;;;;;;;-7.43;100.00;102757.13;2048947;28;20100;-74
2022/12/18 01:28:19;;;;;;;88.57;29.05;;;;;;;-7.46;100.00;102756.88;2055173;28;31472;-74
2022/12/18 01:29:21;;;;;;;97.85;30.88;;;;;;;-7.47;100.00;102760.28;2062823;28;37594;-74
2022/12/18 01:30:23;;;;;;;92.60;30.35;;;;;;;-7.52;100.00;102762.50;2063690;28;28004;-74
2022/12/18 01:31:31;;;;;;;89.88;29.67;;;;;;;-7.53;100.00;102769.41;2047549;28;20047;-74
2022/12/18 01:32:36;;;;;;;80.00;27.10;;;;;;;-7.58;100.00;102757.72;2049040;28;21192;-74
2022/12/18 01:33:37;;;;;;;91.35;29.25;;;;;;;-7.52;100.00;102759.91;2055144;28;30631;-73
2022/12/18 01:34:40;;;;;;;89.35;28.92;;;;;;;-7.55;100.00;102757.09;2062905;28;20094;-74
2022/12/18 01:35:43;;;;;;;87.18;28.55;;;;;;;-7.59;100.00;102755.94;2063135;28;36448;-72
2022/12/18 01:36:44;;;;;;;89.30;29.35;;;;;;;-7.63;100.00;102761.66;2063298;28;26990;-73
2022/12/18 01:37:46;;;;;;;83.00;28.83;;;;;;;-7.67;100.00;102755.28;2063397;28;20174;-73
2022/12/18 01:38:49;;;;;;;88.25;29.00;;;;;;;-7.67;100.00;102751.78;2063072;28;26722;-74
2022/12/18 01:39:54;;;;;;;80.63;27.30;;;;;;;-7.69;100.00;102751.66;2047513;28;20070;-73
2022/12/18 01:41:00;;;;;;;81.93;28.77;;;;;;;-7.73;100.00;102754.81;2048138;28;34357;-74
2022/12/18 01:42:11;;;;;;;81.55;28.15;;;;;;;-7.72;100.00;102755.72;2055213;28;30045;-73
2022/12/18 01:43:13;;;;;;;80.72;26.77;;;;;;;-7.77;100.00;102759.63;2055544;28;28701;-73
2022/12/18 01:44:53;;;;;;;82.05;27.20;;;;;;;-7.80;100.00;102755.09;2047354;28;20418;-73
2022/12/18 01:45:54;;;;;;;83.20;25.92;;;;;;;-7.85;100.00;102756.41;2054879;28;20259;-73
2022/12/18 01:46:57;;;;;;;86.93;27.75;;;;;;;-7.85;100.00;102761.63;2065066;28;29541;-74
2022/12/18 01:48:07;;;;;;;73.97;26.67;;;;;;;-7.94;100.00;102766.97;2062641;28;32461;-73
2022/12/18 01:49:08;;;;;;;82.68;26.02;;;;;;;-7.96;100.00;102762.44;2055830;28;20388;-73
2022/12/18 01:50:24;;;;;;;77.72;25.63;;;;;;;-7.97;100.00;102771.00;2055059;28;32110;-73
2022/12/18 01:51:32;;;;;;;74.97;25.25;;;;;;;-8.00;100.00;102765.56;2064055;28;20444;-73
2022/12/18 01:52:36;;;;;;;82.28;27.02;;;;;;;-8.01;100.00;102774.16;2046956;28;20240;-72
2022/12/18 01:53:41;;;;;;;76.32;26.40;;;;;;;-8.08;100.00;102773.63;2048322;28;20275;-73
2022/12/18 01:54:44;;;;;;;72.95;24.77;;;;;;;-8.06;100.00;102771.16;2062429;28;25397;-73
2022/12/18 01:55:57;;;;;;;77.70;27.08;;;;;;;-8.06;100.00;102774.69;2055517;28;32445;-75
2022/12/18 01:57:00;;;;;;;73.88;26.30;;;;;;;-8.06;100.00;102777.28;2063592;28;22032;-73
2022/12/18 01:58:03;;;;;;;80.65;27.58;;;;;;;-8.10;100.00;102775.22;2055372;28;20264;-73
2022/12/18 01:59:10;;;;;;;71.82;25.60;;;;;;;-8.15;100.00;102780.81;2047322;28;39949;-73
2022/12/18 02:00:19;;;;;;;78.57;27.35;;;;;;;-8.12;100.00;102783.66;2062522;28;30763;-73
2022/12/18 02:01:23;;;;;;;73.15;26.02;;;;;;;-8.14;100.00;102783.53;2063496;28;33645;-73
2022/12/18 02:02:27;;;;;;;78.88;26.30;;;;;;;-8.14;100.00;102786.13;2063439;28;21123;-73
2022/12/18 02:03:29;;;;;;;72.57;24.83;;;;;;;-8.19;100.00;102786.53;2063612;28;20278;-73
2022/12/18 02:04:31;;;;;;;72.10;27.23;;;;;;;-8.24;100.00;102775.75;2062909;28;23514;-73
2022/12/18 02:06:17;;;;;;;82.28;27.13;;;;;;;-8.24;100.00;102793.94;2062745;28;20053;-73
2022/12/18 02:07:37;;;;;;;72.32;22.85;;;;;;;-8.30;100.00;102777.88;2040114;28;21002;-72
2022/12/18 02:09:09;;;;;;;68.80;23.00;;;;;;;-8.32;100.00;102776.84;2047995;28;20244;-73
2022/12/18 02:10:24;;;;;;;64.93;22.60;;;;;;;-8.36;100.00;102779.94;2054945;28;37012;-73
2022/12/18 02:11:48;;;;;;;57.65;21.52;;;;;;;-8.45;100.00;102780.13;2055816;28;24341;-73
2022/12/18 02:13:02;;;;;;;64.32;23.17;;;;;;;-8.55;100.00;102788.81;2050101;28;20255;-73
2022/12/18 02:14:37;;;;;;;66.53;22.15;;;;;;;-8.58;100.00;102778.16;2049463;28;22982;-73
2022/12/18 02:15:54;;;;;;;57.63;21.55;;;;;;;-8.58;100.00;102777.28;2060801;28;20254;-73
2022/12/18 02:17:41;;;;;;;63.30;22.40;;;;;;;-8.62;100.00;102776.09;2061260;28;20287;-73
2022/12/18 02:18:50;;;;;;;64.40;20.77;;;;;;;-8.65;100.00;102778.44;2046583;28;32716;-73
2022/12/18 02:20:33;;;;;;;70.47;24.15;;;;;;;-8.69;100.00;102774.66;2038737;28;20284;-73
2022/12/18 02:22:18;;;;;;;60.47;20.10;;;;;;;-8.78;100.00;102778.19;2044573;28;23644;-74
2022/12/18 02:23:57;;;;;;;60.75;21.65;;;;;;;-8.80;100.00;102779.75;2046314;28;25609;-73
2022/12/18 02:25:17;;;;;;;63.53;21.87;;;;;;;-8.85;100.00;102782.84;2047260;28;20233;-74
2022/12/18 02:26:35;;;;;;;66.53;21.80;;;;;;;-8.82;100.00;102770.94;2049683;28;31831;-73
2022/12/18 02:27:39;;;;;;;61.92;21.65;;;;;;;-8.77;100.00;102769.59;2047486;28;20050;-73
2022/12/18 02:28:53;;;;;;;64.63;21.95;;;;;;;-8.78;100.00;102767.81;2049405;28;20278;-73
2022/12/18 02:29:59;;;;;;;69.63;24.02;;;;;;;-8.78;100.00;102773.00;2046770;28;20280;-73
2022/12/18 02:31:08;;;;;;;69.13;24.98;;;;;;;-8.75;100.00;102768.97;2042220;28;20257;-73
2022/12/18 02:32:17;;;;;;;69.22;24.17;;;;;;;-8.77;100.00;102769.59;2055900;28;20227;-73
2022/12/18 02:33:20;;;;;;;65.20;24.02;;;;;;;-8.81;100.00;102775.31;2054679;28;24532;-73
2022/12/18 02:34:28;;;;;;;59.58;20.88;;;;;;;-8.86;100.00;102761.97;2054736;28;32810;-73
2022/12/18 02:35:32;;;;;;;69.05;23.65;;;;;;;-8.84;100.00;102768.19;2046274;28;20240;-73
2022/12/18 02:36:40;;;;;;;66.95;23.08;;;;;;;-8.84;100.00;102763.91;2040599;28;20483;-73
2022/12/18 02:37:45;;;;;;;60.72;23.63;;;;;;;-8.80;100.00;102764.16;2039729;28;30352;-73
2022/12/18 02:38:51;;;;;;;66.70;23.60;;;;;;;-8.79;100.00;102766.91;2048034;28;21295;-73
2022/12/18 02:39:56;;;;;;;68.50;23.30;;;;;;;-8.80;100.00;102759.88;2055122;28;20299;-73
2022/12/18 02:40:59;;;;;;;73.45;23.73;;;;;;;-8.81;100.00;102768.44;2048162;28;20232;-73
2022/12/18 02:42:07;;;;;;;68.50;23.90;;;;;;;-8.80;100.00;102761.56;2039983;28;21123;-73
2022/12/18 02:43:12;;;;;;;68.63;24.02;;;;;;;-8.80;100.00;102762.47;2047450;28;20346;-73
2022/12/18 02:44:14;;;;;;;74.55;24.15;;;;;;;-8.81;100.00;102762.34;2047208;28;20263;-72
2022/12/18 02:45:17;;;;;;;69.50;22.65;;;;;;;-8.85;100.00;102764.66;2047747;28;20382;-73
2022/12/18 02:46:34;;;;;;;67.40;24.77;;;;;;;-8.85;100.00;102762.06;2038948;29;20252;-73
2022/12/18 02:47:47;;;;;;;66.85;23.50;;;;;;;-8.85;100.00;102763.78;2044938;28;21046;-72
2022/12/18 02:48:55;;;;;;;59.50;22.70;;;;;;;-8.89;100.00;102757.41;2045463;28;20228;-72
2022/12/18 02:50:15;;;;;;;57.15;22.13;;;;;;;-8.90;100.00;102762.47;2047100;28;20236;-72
2022/12/18 02:51:32;;;;;;;63.95;21.33;;;;;;;-8.99;100.00;102756.50;2056288;28;24469;-73
2022/12/18 02:53:10;;;;;;;59.25;21.27;;;;;;;-9.06;100.00;102765.44;2062911;28;20159;-73
2022/12/18 02:54:38;;;;;;;59.13;20.58;;;;;;;-9.12;100.00;102764.91;2043647;28;20268;-72
2022/12/18 02:56:09;;;;;;;48.45;16.42;;;;;;;-9.07;100.00;102764.53;2043046;28;20297;-73
2022/12/18 02:57:45;;;;;;;56.97;21.30;;;;;;;-9.17;100.00;102767.09;2051271;28;20106;-73
2022/12/18 02:59:24;;;;;;;58.20;20.80;;;;;;;-9.20;100.00;102766.84;2047357;28;21222;-73
2022/12/18 03:00:51;;;;;;;61.90;20.42;;;;;;;-9.17;100.00;102763.59;2039642;28;20267;-74
2022/12/18 03:02:19;;;;;;;55.88;19.75;;;;;;;-9.22;100.00;102769.31;2052978;28;39756;-73
2022/12/18 03:03:52;;;;;;;56.50;19.85;;;;;;;-9.23;100.00;102764.00;2047260;28;20337;-73
2022/12/18 03:05:33;;;;;;;65.75;22.60;;;;;;;-9.26;100.00;102762.06;2050389;28;32967;-72
2022/12/18 03:06:47;;;;;;;53.08;19.98;;;;;;;-9.30;100.00;102762.53;2050557;28;20323;-73
2022/12/18 03:08:22;;;;;;;58.80;21.63;;;;;;;-9.30;100.00;102751.28;2055955;28;21074;-73
2022/12/18 03:09:41;;;;;;;53.22;20.35;;;;;;;-9.33;100.00;102744.16;2039083;29;20357;-73
2022/12/18 03:11:03;;;;;;;54.55;21.13;;;;;;;-9.30;100.00;102744.38;2041613;28;20308;-73
2022/12/18 03:12:24;;;;;;;61.22;21.42;;;;;;;-9.28;100.00;102739.34;2042246;28;20087;-73
2022/12/18 03:13:46;;;;;;;61.15;20.83;;;;;;;-9.27;100.00;102743.75;2036330;29;20324;-73
2022/12/18 03:14:58;;;;;;;;;;;;;;;-9.29;100.00;102738.44;2038831;28;20237;-73
2022/12/18 03:16:04;;;;;;;55.95;19.42;;;;;;;-9.26;100.00;102736.13;2042644;28;19978;-73
2022/12/18 03:17:12;;;;;;;56.35;20.70;;;;;;;-9.25;100.00;102731.84;2039904;28;21202;-73
2022/12/18 03:18:30;;;;;;;54.42;20.50;;;;;;;-9.23;100.00;102736.34;2040580;28;20209;-73
2022/12/18 03:19:33;;;;;;;60.70;22.48;;;;;;;-9.22;100.00;102737.28;2049226;28;20233;-73
2022/12/18 03:20:39;;;;;;;56.13;21.00;;;;;;;-9.23;100.00;102736.34;2039235;28;20232;-73
2022/12/18 03:21:49;;;;;;;58.42;20.60;;;;;;;-9.25;100.00;102740.50;2040091;28;24132;-73
2022/12/18 03:22:59;;;;;;;53.50;20.63;;;;;;;-9.27;100.00;102751.53;2039197;29;20368;-73
2022/12/18 03:24:05;;;;;;;52.30;21.00;;;;;;;-9.34;100.00;102744.00;2039843;28;24559;-72
2022/12/18 03:25:14;;;;;;;53.40;21.42;;;;;;;-9.34;100.00;102750.09;2040979;28;20351;-73
2022/12/18 03:26:24;;;;;;;49.88;20.48;;;;;;;-9.33;100.00;102759.72;2032452;29;20318;-72
2022/12/18 03:27:33;;;;;;;55.67;22.00;;;;;;;-9.32;100.00;102753.72;2033640;28;20277;-73
2022/12/18 03:28:47;;;;;;;55.08;21.50;;;;;;;-9.33;100.00;102753.59;2042054;28;20288;-73
2022/12/18 03:30:07;;;;;;;56.60;21.98;;;;;;;-9.35;100.00;102752.56;2039901;28;21135;-73
2022/12/18 03:31:14;;;;;;;50.55;19.15;;;;;;;-9.42;100.00;102754.63;2046469;28;20075;-73
2022/12/18 03:32:31;;;;;;;61.97;22.45;;;;;;;-9.42;100.00;102758.88;2057240;28;20377;-72
2022/12/18 03:33:43;;;;;;;57.38;20.13;;;;;;;-9.41;100.00;102756.41;2047231;28;20240;-73
2022/12/18 03:34:50;;;;;;;52.65;21.40;;;;;;;-9.42;100.00;102766.66;2049900;28;20227;-72
2022/12/18 03:35:55;;;;;;;47.85;18.85;;;;;;;-9.44;100.00;102771.75;2047948;28;20236;-73
2022/12/18 03:36:57;;;;;;;51.92;20.60;;;;;;;-9.42;100.00;102774.44;2046632;28;21898;-72
2022/12/18 03:37:59;;;;;;;51.10;20.70;;;;;;;-9.38;100.00;102773.03;2054672;28;25022;-73
2022/12/18 03:39:01;;;;;;;56.72;21.40;;;;;;;-9.40;100.00;102778.09;2055694;28;20252;-72
2022/12/18 03:40:05;;;;;;;52.45;21.27;;;;;;;-9.38;100.00;102766.19;2054675;28;20232;-73
2022/12/18 03:41:33;;;;;;;57.75;22.42;;;;;;;-9.38;100.00;102755.81;2046690;28;20224;-72
2022/12/18 03:43:08;;;;;;;49.50;20.52;;;;;;;-9.41;100.00;102755.53;2040634;28;20351;-73
2022/12/18 03:44:47;;;;;;;50.03;20.27;;;;;;;-9.41;100.00;102761.63;2050133;28;20243;-73
2022/12/18 03:46:02;;;;;;;55.50;21.52;;;;;;;-9.44;100.00;102751.00;2054930;28;20264;-73
2022/12/18 03:47:10;;;;;;;50.78;20.05;;;;;;;-9.42;100.00;102756.28;2062937;28;20039;-73
2022/12/18 03:48:44;;;;;;;46.67;20.38;;;;;;;-9.47;100.00;102760.19;2063130;28;20263;-73
2022/12/18 03:50:03;;;;;;;56.90;20.73;;;;;;;-9.51;100.00;102768.44;2038867;29;21184;-73
2022/12/18 03:51:18;;;;;;;;;;;;;;;-9.55;100.00;102771.56;2043709;28;21212;-74
2022/12/18 03:52:28;;;;;;;53.35;20.05;;;;;;;-9.59;100.00;102767.78;2055564;28;26828;-73
2022/12/18 03:53:54;;;;;;;;;;;;;;;-9.58;100.00;102759.25;2046666;28;20074;-73
2022/12/18 03:55:04;;;;;;;46.05;17.40;;;;;;;-9.55;100.00;102764.69;2054514;28;20079;-73
2022/12/18 03:56:09;;;;;;;46.45;19.40;;;;;;;-9.51;100.00;102764.19;2046839;28;20412;-74
2022/12/18 03:57:22;;;;;;;52.67;21.30;;;;;;;-9.50;100.00;102762.50;2041457;28;20233;-73
2022/12/18 03:58:28;;;;;;;51.85;20.45;;;;;;;-9.53;100.00;102759.63;2048497;28;20300;-73
2022/12/18 03:59:42;;;;;;;53.75;20.25;;;;;;;-9.51;100.00;102759.00;2040298;28;21091;-73
2022/12/18 04:00:49;;;;;;;57.15;21.55;;;;;;;-9.50;100.00;102753.03;2049861;28;20370;-73
2022/12/18 04:01:54;;;;;;;48.97;21.42;;;;;;;-9.50;100.00;102754.72;2055053;28;21240;-74
2022/12/18 04:03:01;;;;;;;54.42;22.45;;;;;;;-9.53;100.00;102751.84;2039560;28;20261;-73
2022/12/18 04:04:12;;;;;;;47.70;21.02;;;;;;;-9.57;100.00;102753.28;2034600;28;21177;-73
2022/12/18 04:05:16;;;;;;;53.45;20.83;;;;;;;-9.62;100.00;102749.38;2041345;28;20272;-73
2022/12/18 04:06:19;;;;;;;58.17;22.52;;;;;;;-9.66;100.00;102752.47;2039071;28;20710;-74
2022/12/18 04:07:23;;;;;;;50.75;22.17;;;;;;;-9.70;100.00;102756.47;2039339;28;21940;-72
2022/12/18 04:08:26;;;;;;;54.88;21.48;;;;;;;-9.74;100.00;102756.06;2046960;28;20666;-73
2022/12/18 04:09:39;;;;;;;46.97;20.80;;;;;;;-9.76;100.00;102752.41;2047428;28;20244;-73
2022/12/18 04:10:41;;;;;;;50.47;20.10;;;;;;;-9.75;100.00;102760.34;2056122;28;20330;-73
2022/12/18 04:11:44;;;;;;;57.15;21.95;;;;;;;-9.72;100.00;102758.03;2046856;28;21196;-73
2022/12/18 04:12:47;;;;;;;54.50;22.15;;;;;;;-9.67;100.00;102764.53;2047309;28;20459;-73
2022/12/18 04:13:50;;;;;;;54.42;21.92;;;;;;;-9.62;100.00;102767.50;2055186;28;20264;-73
2022/12/18 04:14:56;;;;;;;53.55;21.77;;;;;;;-9.64;100.00;102767.38;2056482;28;21137;-72
2022/12/18 04:15:57;;;;;;;54.70;22.52;;;;;;;-9.58;100.00;102766.09;2056199;28;20287;-73
2022/12/18 04:16:59;;;;;;;54.30;22.15;;;;;;;-9.58;100.00;102771.28;2057031;28;21097;-74
2022/12/18 04:18:05;;;;;;;60.13;23.15;;;;;;;-9.55;100.00;102763.78;2065110;28;20272;-74
2022/12/18 04:19:13;;;;;;;56.67;22.88;;;;;;;-9.54;100.00;102761.31;2064400;28;20326;-72
2022/12/18 04:20:18;;;;;;;49.47;21.67;;;;;;;-9.52;100.00;102762.38;2063964;28;20259;-73
2022/12/18 04:21:21;;;;;;;54.40;22.35;;;;;;;-9.54;100.00;102756.16;2055925;28;20378;-73
2022/12/18 04:22:23;;;;;;;50.92;22.00;;;;;;;-9.50;100.00;102740.06;2047840;28;20264;-73
2022/12/18 04:23:33;;;;;;;55.17;21.52;;;;;;;-9.45;100.00;102748.25;2050952;28;20406;-73
2022/12/18 04:24:36;;;;;;;54.67;21.65;;;;;;;-9.52;100.00;102752.00;2055836;28;20039;-73
2022/12/18 04:26:13;;;;;;;49.83;20.55;;;;;;;-9.58;100.00;102745.34;2083988;23;20307;-64
2022/12/18 04:27:44;;;;;;;48.70;20.08;;;;;;;-9.66;100.00;102760.25;2055139;28;20366;-64
2022/12/18 04:28:46;;;;;;;50.58;21.27;;;;;;;-9.63;100.00;102761.44;2056407;28;20220;-64
2022/12/18 04:29:49;;;;;;;50.38;21.50;;;;;;;-9.67;100.00;102764.53;2055837;28;20260;-64
2022/12/18 04:30:52;;;;;;;52.30;20.70;;;;;;;-9.69;100.00;102755.72;2048437;28;20260;-64
2022/12/18 04:31:56;;;;;;;52.80;21.10;;;;;;;-9.73;100.00;102761.38;2048309;28;20244;-64
2022/12/18 04:33:00;;;;;;;56.55;21.40;;;;;;;-9.71;100.00;102759.81;2056227;28;20422;-64
2022/12/18 04:34:04;;;;;;;53.92;22.05;;;;;;;-9.69;100.00;102763.50;2055906;28;20334;-64
2022/12/18 04:35:12;;;;;;;44.08;20.20;;;;;;;-9.68;100.00;102764.41;2049317;28;21150;-64
2022/12/18 04:36:17;;;;;;;48.85;20.70;;;;;;;-9.64;100.00;102757.00;2048381;28;20236;-64
2022/12/18 04:37:19;;;;;;;49.90;22.13;;;;;;;-9.65;100.00;102760.38;2048194;28;20233;-64
2022/12/18 04:38:24;;;;;;;47.30;20.60;;;;;;;-9.67;100.00;102758.41;2055872;28;21093;-64
2022/12/18 04:39:33;;;;;;;40.75;16.85;;;;;;;-9.70;100.00;102765.94;2049190;28;21496;-64
2022/12/18 04:40:40;;;;;;;51.35;21.65;;;;;;;-9.73;100.00;102771.75;2048503;28;20043;-64
2022/12/18 04:41:53;;;;;;;45.97;21.02;;;;;;;-9.74;100.00;102772.53;2049030;28;21225;-66
2022/12/18 04:42:55;;;;;;;41.67;18.65;;;;;;;-9.79;100.00;102772.13;2048450;28;20275;-65
2022/12/18 04:43:56;;;;;;;49.00;20.45;;;;;;;-9.80;100.00;102777.16;2055614;28;38868;-65
2022/12/18 04:44:58;;;;;;;47.03;19.45;;;;;;;-9.85;100.00;102776.78;2063790;28;43347;-65
2022/12/18 04:46:07;;;;;;;43.83;18.08;;;;;;;-9.83;100.00;102776.91;2064600;28;20294;-65
2022/12/18 04:47:11;;;;;;;46.05;19.63;;;;;;;-9.80;100.00;102769.38;2064533;28;39658;-65
2022/12/18 04:48:12;;;;;;;47.05;19.58;;;;;;;-9.80;100.00;102779.75;2063220;28;36555;-65
2022/12/18 04:49:16;;;;;;;48.22;19.77;;;;;;;-9.74;100.00;102769.94;2064922;28;21312;-66
2022/12/18 04:50:18;;;;;;;45.40;20.33;;;;;;;-9.79;100.00;102766.03;2064051;28;37742;-65
2022/12/18 04:51:20;;;;;;;43.47;19.02;;;;;;;-9.79;100.00;102766.03;2064182;28;37767;-65
2022/12/18 04:52:27;;;;;;;46.15;20.40;;;;;;;-9.81;100.00;102763.31;2064254;28;22467;-66
2022/12/18 04:53:28;;;;;;;40.40;17.98;;;;;;;-9.78;100.00;102760.06;2064738;28;20243;-65
2022/12/18 04:54:30;;;;;;;47.75;20.50;;;;;;;-9.78;100.00;102760.06;2064174;28;34634;-66
2022/12/18 04:55:32;;;;;;;45.45;19.83;;;;;;;-9.82;100.00;102764.06;2064129;28;35910;-66
2022/12/18 04:56:33;;;;;;;45.42;19.30;;;;;;;-9.77;100.00;102764.47;2064840;28;20242;-66
2022/12/18 04:57:35;;;;;;;41.95;19.70;;;;;;;-9.74;100.00;102764.75;2066532;28;41312;-66
2022/12/18 04:58:39;;;;;;;47.58;21.48;;;;;;;-9.76;100.00;102761.13;2063465;28;36843;-66
2022/12/18 04:59:41;;;;;;;44.75;19.88;;;;;;;-9.79;100.00;102766.03;2064872;28;21109;-65
2022/12/18 05:00:42;;;;;;;42.92;19.02;;;;;;;-9.78;100.00;102770.44;2064042;28;36837;-64
2022/12/18 05:01:45;;;;;;;43.63;19.88;;;;;;;-9.82;100.00;102770.94;2063922;28;38108;-66
2022/12/18 05:02:47;;;;;;;46.55;19.13;;;;;;;-9.83;100.00;102772.63;2064030;28;36041;-65
2022/12/18 05:03:51;;;;;;;47.00;18.80;;;;;;;-9.83;100.00;102772.63;2063968;28;36382;-65
2022/12/18 05:04:53;;;;;;;45.30;18.75;;;;;;;-9.83;100.00;102779.50;2064024;28;34746;-65
2022/12/18 05:05:54;;;;;;;43.95;19.05;;;;;;;-9.81;100.00;102788.31;2063978;28;35519;-65
2022/12/18 05:06:56;;;;;;;38.08;18.52;;;;;;;-9.79;100.00;102781.59;2063672;28;40047;-65
2022/12/18 05:07:58;;;;;;;40.75;18.85;;;;;;;-9.72;100.00;102789.13;2063744;28;35848;-66